createdAt,value
2016-09-10T00:00:22.473Z,14.05
2016-09-10T00:01:22.296Z,13.94
2016-09-10T00:02:22.492Z,14.02
2016-09-10T00:03:22.430Z,14.01
2016-09-10T00:04:22.473Z,14.02
2016-09-10T00:05:22.322Z,13.88
2016-09-10T00:06:22.351Z,13.88
2016-09-10T00:07:22.430Z,13.86
2016-09-10T00:08:22.392Z,13.84
2016-09-10T00:09:22.439Z,13.81
2016-09-10T00:10:22.406Z,13.79
2016-09-10T00:11:22.448Z,13.93
2016-09-10T00:12:22.613Z,13.86
2016-09-10T00:13:22.528Z,13.84
2016-09-10T00:14:22.490Z,13.78
2016-09-10T00:15:22.573Z,13.84
2016-09-10T00:16:22.475Z,13.78
2016-09-10T00:17:22.444Z,13.79
2016-09-10T00:18:22.581Z,13.72
2016-09-10T00:19:22.435Z,13.66
2016-09-10T00:20:22.470Z,13.73
2016-09-10T00:21:22.576Z,13.79
2016-09-10T00:22:22.483Z,13.84
2016-09-10T00:23:22.486Z,13.78
2016-09-10T00:24:22.432Z,13.7
2016-09-10T00:25:22.552Z,13.72
2016-09-10T00:26:22.629Z,13.72
2016-09-10T00:27:22.507Z,13.75
2016-09-10T00:28:22.472Z,13.62
2016-09-10T00:29:22.514Z,13.63
2016-09-10T00:30:22.445Z,13.66
2016-09-10T00:31:22.551Z,13.62
2016-09-10T00:32:22.482Z,13.66
2016-09-10T00:33:22.446Z,13.63
2016-09-10T00:34:22.566Z,13.58
2016-09-10T00:35:22.483Z,13.57
2016-09-10T00:36:22.442Z,13.6
2016-09-10T00:37:22.503Z,13.58
2016-09-10T00:38:22.567Z,13.54
2016-09-10T00:39:22.607Z,13.62
2016-09-10T00:40:22.620Z,13.55
2016-09-10T00:41:22.546Z,13.65
2016-09-10T00:42:22.555Z,13.53
2016-09-10T00:43:22.513Z,13.55
2016-09-10T00:44:22.596Z,13.6
2016-09-10T00:45:22.530Z,13.55
2016-09-10T00:46:22.580Z,13.58
2016-09-10T00:47:22.527Z,13.6
2016-09-10T00:48:22.562Z,13.58
2016-09-10T00:49:22.808Z,13.6
2016-09-10T00:50:22.423Z,13.54
2016-09-10T00:51:22.438Z,13.62
2016-09-10T00:52:22.596Z,13.53
2016-09-10T00:53:22.848Z,13.58
2016-09-10T00:54:22.548Z,13.57
2016-09-10T00:55:22.443Z,13.54
2016-09-10T00:56:22.551Z,13.5
2016-09-10T00:57:22.767Z,13.55
2016-09-10T00:58:22.583Z,13.51
2016-09-10T00:59:22.660Z,13.45
2016-09-10T01:00:22.646Z,13.48
2016-09-10T01:01:22.601Z,13.5
2016-09-10T01:02:22.555Z,13.58
2016-09-10T01:03:22.528Z,13.55
2016-09-10T01:04:22.670Z,13.54
2016-09-10T01:05:22.626Z,13.53
2016-09-10T01:06:22.575Z,13.55
2016-09-10T01:07:22.539Z,13.55
2016-09-10T01:08:22.461Z,13.54
2016-09-10T01:09:22.544Z,13.54
2016-09-10T01:10:22.496Z,13.58
2016-09-10T01:11:22.499Z,13.58
2016-09-10T01:12:22.684Z,13.57
2016-09-10T01:13:22.594Z,13.65
2016-09-10T01:14:22.608Z,13.58
2016-09-10T01:15:22.519Z,13.62
2016-09-10T01:16:22.596Z,13.58
2016-09-10T01:17:22.603Z,13.62
2016-09-10T01:18:22.623Z,13.62
2016-09-10T01:19:22.617Z,13.54
2016-09-10T01:20:22.783Z,13.54
2016-09-10T01:21:22.659Z,13.57
2016-09-10T01:22:22.831Z,13.44
2016-09-10T01:23:22.620Z,13.5
2016-09-10T01:24:22.555Z,13.51
2016-09-10T01:25:22.652Z,13.51
2016-09-10T01:26:22.721Z,13.42
2016-09-10T01:27:22.672Z,13.51
2016-09-10T01:28:22.909Z,13.42
2016-09-10T01:29:22.722Z,13.53
2016-09-10T01:30:22.552Z,13.55
2016-09-10T01:31:22.618Z,13.5
2016-09-10T01:32:22.730Z,13.51
2016-09-10T01:33:22.749Z,13.39
2016-09-10T01:34:22.577Z,13.54
2016-09-10T01:35:22.640Z,13.35
2016-09-10T01:36:22.577Z,13.42
2016-09-10T01:37:22.529Z,13.4
2016-09-10T01:38:22.620Z,13.4
2016-09-10T01:39:22.551Z,13.42
2016-09-10T01:40:22.640Z,13.4
2016-09-10T01:41:22.604Z,13.42
2016-09-10T01:42:22.575Z,13.37
2016-09-10T01:43:22.549Z,13.5
2016-09-10T01:44:22.595Z,13.36
2016-09-10T01:45:22.509Z,13.48
2016-09-10T01:46:22.879Z,13.36
2016-09-10T01:47:26.866Z,13.37
2016-09-10T01:48:22.601Z,13.36
2016-09-10T01:49:22.576Z,13.28
2016-09-10T01:50:22.751Z,13.35
2016-09-10T01:51:22.540Z,13.31
2016-09-10T01:52:22.546Z,13.32
2016-09-10T01:53:22.642Z,13.35
2016-09-10T01:54:22.564Z,13.39
2016-09-10T01:55:22.582Z,13.35
2016-09-10T01:56:22.706Z,13.36
2016-09-10T01:57:22.634Z,13.32
2016-09-10T01:58:22.670Z,13.2
2016-09-10T01:59:22.540Z,13.28
2016-09-10T02:00:22.634Z,13.29
2016-09-10T02:01:22.590Z,13.17
2016-09-10T02:02:22.661Z,13.25
2016-09-10T02:03:22.639Z,13.35
2016-09-10T02:04:22.685Z,13.27
2016-09-10T02:05:22.746Z,13.25
2016-09-10T02:06:22.521Z,13.28
2016-09-10T02:07:22.571Z,13.28
2016-09-10T02:08:22.646Z,13.29
2016-09-10T02:09:22.779Z,13.25
2016-09-10T02:10:22.746Z,13.31
2016-09-10T02:11:22.542Z,13.36
2016-09-10T02:12:22.625Z,13.39
2016-09-10T02:13:22.735Z,13.29
2016-09-10T02:14:22.552Z,13.24
2016-09-10T02:15:22.765Z,13.25
2016-09-10T02:16:22.681Z,13.28
2016-09-10T02:17:22.604Z,13.2
2016-09-10T02:18:22.631Z,13.28
2016-09-10T02:19:22.655Z,13.19
2016-09-10T02:20:22.695Z,13.11
2016-09-10T02:21:22.771Z,13.19
2016-09-10T02:22:22.854Z,13.13
2016-09-10T02:23:22.656Z,13.2
2016-09-10T02:24:22.789Z,13.16
2016-09-10T02:25:22.634Z,13.13
2016-09-10T02:26:22.737Z,13.2
2016-09-10T02:27:22.842Z,13.13
2016-09-10T02:28:22.764Z,13.24
2016-09-10T02:29:22.654Z,13.19
2016-09-10T02:30:22.569Z,13.17
2016-09-10T02:31:22.697Z,13.13
2016-09-10T02:32:22.858Z,13.11
2016-09-10T02:33:22.925Z,13.06
2016-09-10T02:34:22.986Z,13.06
2016-09-10T02:35:22.662Z,13.07
2016-09-10T02:36:22.626Z,13.06
2016-09-10T02:37:22.655Z,13.1
2016-09-10T02:38:22.895Z,13.03
2016-09-10T02:39:22.611Z,13.16
2016-09-10T02:40:23.293Z,13.16
2016-09-10T02:41:22.586Z,13.24
2016-09-10T02:42:22.699Z,13.25
2016-09-10T02:43:22.674Z,13.27
2016-09-10T02:44:22.672Z,13.24
2016-09-10T02:45:22.662Z,13.14
2016-09-10T02:46:22.648Z,13.24
2016-09-10T02:47:22.685Z,13.11
2016-09-10T02:48:22.723Z,13.16
2016-09-10T02:49:22.775Z,13.13
2016-09-10T02:50:22.738Z,13.11
2016-09-10T02:51:22.756Z,13.06
2016-09-10T02:52:22.792Z,13.03
2016-09-10T02:53:22.648Z,12.98
2016-09-10T02:54:22.803Z,12.95
2016-09-10T02:55:22.962Z,12.83
2016-09-10T02:56:22.797Z,12.91
2016-09-10T02:57:22.782Z,12.83
2016-09-10T02:58:22.723Z,12.89
2016-09-10T02:59:22.726Z,12.92
2016-09-10T03:00:22.788Z,12.95
2016-09-10T03:01:22.640Z,12.95
2016-09-10T03:02:22.761Z,12.91
2016-09-10T03:03:22.792Z,13.02
2016-09-10T03:04:22.839Z,13.01
2016-09-10T03:05:22.655Z,13.01
2016-09-10T03:06:22.666Z,12.99
2016-09-10T03:07:22.841Z,13.06
2016-09-10T03:08:22.778Z,13.01
2016-09-10T03:09:22.764Z,12.91
2016-09-10T03:10:22.784Z,12.86
2016-09-10T03:11:22.717Z,12.88
2016-09-10T03:12:22.738Z,12.83
2016-09-10T03:13:22.726Z,12.84
2016-09-10T03:14:22.598Z,12.8
2016-09-10T03:15:22.908Z,12.8
2016-09-10T03:16:22.782Z,12.81
2016-09-10T03:17:22.784Z,12.77
2016-09-10T03:18:22.712Z,12.74
2016-09-10T03:19:22.725Z,12.84
2016-09-10T03:20:22.715Z,12.83
2016-09-10T03:21:22.755Z,12.73
2016-09-10T03:22:22.740Z,12.71
2016-09-10T03:23:22.849Z,12.73
2016-09-10T03:24:22.847Z,12.86
2016-09-10T03:25:22.606Z,12.89
2016-09-10T03:26:22.637Z,12.95
2016-09-10T03:27:23.217Z,13.06
2016-09-10T03:28:22.694Z,12.99
2016-09-10T03:29:22.711Z,13.02
2016-09-10T03:30:23.110Z,13.06
2016-09-10T03:31:22.749Z,13.03
2016-09-10T03:32:22.730Z,12.98
2016-09-10T03:33:22.736Z,13.03
2016-09-10T03:34:22.675Z,12.89
2016-09-10T03:35:22.770Z,12.91
2016-09-10T03:36:22.695Z,12.83
2016-09-10T03:37:22.798Z,12.81
2016-09-10T03:38:22.746Z,12.74
2016-09-10T03:39:22.833Z,12.77
2016-09-10T03:40:22.741Z,12.7
2016-09-10T03:41:22.668Z,12.76
2016-09-10T03:42:22.994Z,12.78
2016-09-10T03:43:22.715Z,12.76
2016-09-10T03:44:22.832Z,12.81
2016-09-10T03:45:22.872Z,12.74
2016-09-10T03:46:22.775Z,12.71
2016-09-10T03:47:22.701Z,12.59
2016-09-10T03:48:23.025Z,12.61
2016-09-10T03:49:22.723Z,12.66
2016-09-10T03:50:22.817Z,12.62
2016-09-10T03:51:22.727Z,12.56
2016-09-10T03:52:22.804Z,12.59
2016-09-10T03:53:22.847Z,12.58
2016-09-10T03:54:22.841Z,12.61
2016-09-10T03:55:22.734Z,12.59
2016-09-10T03:56:22.770Z,12.59
2016-09-10T03:57:22.698Z,12.63
2016-09-10T03:58:22.902Z,12.7
2016-09-10T03:59:22.723Z,12.58
2016-09-10T04:00:22.832Z,12.52
2016-09-10T04:01:22.952Z,12.62
2016-09-10T04:02:22.860Z,12.62
2016-09-10T04:03:22.830Z,12.65
2016-09-10T04:04:23.083Z,12.61
2016-09-10T04:05:22.684Z,12.58
2016-09-10T04:06:22.784Z,12.45
2016-09-10T04:07:22.908Z,12.59
2016-09-10T04:08:22.914Z,12.53
2016-09-10T04:09:23.112Z,12.53
2016-09-10T04:10:22.828Z,12.58
2016-09-10T04:11:22.990Z,12.61
2016-09-10T04:12:22.910Z,12.58
2016-09-10T04:13:22.770Z,12.63
2016-09-10T04:14:22.734Z,12.66
2016-09-10T04:15:22.834Z,12.65
2016-09-10T04:16:22.860Z,12.69
2016-09-10T04:17:22.868Z,12.65
2016-09-10T04:18:22.876Z,12.69
2016-09-10T04:19:22.823Z,12.63
2016-09-10T04:20:22.812Z,12.66
2016-09-10T04:21:22.889Z,12.61
2016-09-10T04:22:22.760Z,12.56
2016-09-10T04:23:22.829Z,12.61
2016-09-10T04:24:22.834Z,12.61
2016-09-10T04:25:22.940Z,12.59
2016-09-10T04:26:22.820Z,12.7
2016-09-10T04:27:22.757Z,12.7
2016-09-10T04:28:22.783Z,12.7
2016-09-10T04:29:22.859Z,12.66
2016-09-10T04:30:22.917Z,12.63
2016-09-10T04:31:23.078Z,12.71
2016-09-10T04:32:22.869Z,12.61
2016-09-10T04:33:22.819Z,12.59
2016-09-10T04:34:22.837Z,12.74
2016-09-10T04:35:22.702Z,12.55
2016-09-10T04:36:22.902Z,12.65
2016-09-10T04:37:22.885Z,12.63
2016-09-10T04:38:22.777Z,12.71
2016-09-10T04:39:22.816Z,12.61
2016-09-10T04:40:22.782Z,12.74
2016-09-10T04:41:22.851Z,12.76
2016-09-10T04:42:22.801Z,12.73
2016-09-10T04:43:22.804Z,12.76
2016-09-10T04:44:22.938Z,12.81
2016-09-10T04:45:22.850Z,12.76
2016-09-10T04:46:22.876Z,12.74
2016-09-10T04:47:23.124Z,12.73
2016-09-10T04:48:22.931Z,12.81
2016-09-10T04:49:22.730Z,12.73
2016-09-10T04:50:22.930Z,12.69
2016-09-10T04:51:22.790Z,12.74
2016-09-10T04:52:22.868Z,12.74
2016-09-10T04:53:22.848Z,12.63
2016-09-10T04:54:22.858Z,12.66
2016-09-10T04:55:23.048Z,12.62
2016-09-10T04:56:22.796Z,12.62
2016-09-10T04:57:22.890Z,12.69
2016-09-10T04:58:22.910Z,12.74
2016-09-10T04:59:22.932Z,12.78
2016-09-10T05:00:22.761Z,12.77
2016-09-10T05:01:22.820Z,12.78
2016-09-10T05:02:22.913Z,12.71
2016-09-10T05:03:23.006Z,12.78
2016-09-10T05:04:22.737Z,12.69
2016-09-10T05:05:22.898Z,12.71
2016-09-10T05:06:22.905Z,12.71
2016-09-10T05:07:22.864Z,12.78
2016-09-10T05:08:22.988Z,12.8
2016-09-10T05:09:22.875Z,12.71
2016-09-10T05:10:22.854Z,12.77
2016-09-10T05:11:22.777Z,12.74
2016-09-10T05:12:22.888Z,12.83
2016-09-10T05:13:23.612Z,12.8
2016-09-10T05:14:22.761Z,12.92
2016-09-10T05:15:22.990Z,12.8
2016-09-10T05:16:22.855Z,12.83
2016-09-10T05:17:22.930Z,12.73
2016-09-10T05:18:22.892Z,12.77
2016-09-10T05:19:22.884Z,12.76
2016-09-10T05:20:22.913Z,12.71
2016-09-10T05:21:22.965Z,12.76
2016-09-10T05:22:22.918Z,12.74
2016-09-10T05:23:22.849Z,12.78
2016-09-10T05:24:22.907Z,12.83
2016-09-10T05:25:22.900Z,12.77
2016-09-10T05:26:22.973Z,12.86
2016-09-10T05:27:22.990Z,13.11
2016-09-10T05:28:23.050Z,13.11
2016-09-10T05:29:22.921Z,13.24
2016-09-10T05:30:22.978Z,13.24
2016-09-10T05:31:22.951Z,13.24
2016-09-10T05:32:22.936Z,13.32
2016-09-10T05:33:22.774Z,13.28
2016-09-10T05:34:22.993Z,13.25
2016-09-10T05:35:22.920Z,13.25
2016-09-10T05:36:22.828Z,13.45
2016-09-10T05:37:22.897Z,13.37
2016-09-10T05:38:22.895Z,13.37
2016-09-10T05:39:22.910Z,13.51
2016-09-10T05:40:22.931Z,13.6
2016-09-10T05:41:22.887Z,13.6
2016-09-10T05:42:22.926Z,13.73
2016-09-10T05:43:22.926Z,13.73
2016-09-10T05:44:23.296Z,13.84
2016-09-10T05:45:22.924Z,13.88
2016-09-10T05:46:22.968Z,13.95
2016-09-10T05:47:22.958Z,14.03
2016-09-10T05:48:23.037Z,14.2
2016-09-10T05:49:23.056Z,14.28
2016-09-10T05:50:23.146Z,14.39
2016-09-10T05:51:23.204Z,14.44
2016-09-10T05:52:23.094Z,14.23
2016-09-10T05:53:22.966Z,14.16
2016-09-10T05:54:22.940Z,14.2
2016-09-10T05:55:22.858Z,14.19
2016-09-10T05:56:22.949Z,14.24
2016-09-10T05:57:23.079Z,14.21
2016-09-10T05:58:23.013Z,14.21
2016-09-10T05:59:23.064Z,14.31
2016-09-10T06:00:22.956Z,14.41
2016-09-10T06:01:22.997Z,14.49
2016-09-10T06:02:23.913Z,14.46
2016-09-10T06:03:23.014Z,14.59
2016-09-10T06:04:22.967Z,14.63
2016-09-10T06:05:22.959Z,14.7
2016-09-10T06:06:23.046Z,14.69
2016-09-10T06:07:22.988Z,14.79
2016-09-10T06:08:23.093Z,14.74
2016-09-10T06:09:23.051Z,14.87
2016-09-10T06:10:22.931Z,14.83
2016-09-10T06:11:22.998Z,14.9
2016-09-10T06:12:23.030Z,14.97
2016-09-10T06:13:23.026Z,15.04
2016-09-10T06:14:22.885Z,15.05
2016-09-10T06:15:22.896Z,15.18
2016-09-10T06:16:23.032Z,15.18
2016-09-10T06:17:23.027Z,15.44
2016-09-10T06:18:22.874Z,15.59
2016-09-10T06:19:23.010Z,15.81
2016-09-10T06:20:23.013Z,16.13
2016-09-10T06:21:22.968Z,16.27
2016-09-10T06:22:23.155Z,16.33
2016-09-10T06:23:22.910Z,16.42
2016-09-10T06:24:23.001Z,16.49
2016-09-10T06:25:22.879Z,16.32
2016-09-10T06:26:23.109Z,16.32
2016-09-10T06:27:23.081Z,16.29
2016-09-10T06:28:23.262Z,16.37
2016-09-10T06:29:23.085Z,16.37
2016-09-10T06:30:22.879Z,16.4
2016-09-10T06:31:22.979Z,16.42
2016-09-10T06:32:23.026Z,16.55
2016-09-10T06:33:23.019Z,16.69
2016-09-10T06:34:23.048Z,16.65
2016-09-10T06:35:22.957Z,16.81
2016-09-10T06:36:22.913Z,16.91
2016-09-10T06:37:22.992Z,17.12
2016-09-10T06:38:23.057Z,17.12
2016-09-10T06:39:23.110Z,17.35
2016-09-10T06:40:24.333Z,17.5
2016-09-10T06:41:22.937Z,17.65
2016-09-10T06:42:23.078Z,18.01
2016-09-10T06:43:23.174Z,18.1
2016-09-10T06:44:22.937Z,18.1
2016-09-10T06:45:23.036Z,18.17
2016-09-10T06:46:22.918Z,18.23
2016-09-10T06:47:22.965Z,18.23
2016-09-10T06:48:23.061Z,18.11
2016-09-10T06:49:23.016Z,18.14
2016-09-10T06:50:22.985Z,18.13
2016-09-10T06:51:23.041Z,18.23
2016-09-10T06:52:22.909Z,18.2
2016-09-10T06:53:23.034Z,18.29
2016-09-10T06:54:23.271Z,18.56
2016-09-10T06:55:23.030Z,18.86
2016-09-10T06:56:23.147Z,19
2016-09-10T06:57:23.042Z,19.12
2016-09-10T06:58:23.141Z,19.2
2016-09-10T06:59:22.969Z,19.3
2016-09-10T07:00:23.000Z,19.3
2016-09-10T07:01:23.445Z,19.1
2016-09-10T07:02:23.029Z,18.79
2016-09-10T07:03:23.074Z,18.66
2016-09-10T07:04:23.002Z,18.68
2016-09-10T07:05:23.080Z,18.97
2016-09-10T07:06:23.247Z,19.16
2016-09-10T07:07:23.067Z,19.19
2016-09-10T07:08:23.091Z,19.38
2016-09-10T07:09:23.091Z,19.46
2016-09-10T07:10:23.053Z,19.49
2016-09-10T07:11:23.046Z,19.45
2016-09-10T07:12:23.234Z,19.57
2016-09-10T07:13:23.009Z,19.63
2016-09-10T07:14:23.020Z,19.83
2016-09-10T07:15:23.067Z,19.87
2016-09-10T07:16:22.961Z,19.82
2016-09-10T07:17:23.037Z,19.75
2016-09-10T07:18:23.153Z,19.6
2016-09-10T07:19:23.136Z,19.52
2016-09-10T07:20:23.044Z,19.55
2016-09-10T07:21:23.025Z,19.47
2016-09-10T07:22:23.271Z,19.65
2016-09-10T07:23:23.062Z,19.65
2016-09-10T07:24:22.989Z,19.63
2016-09-10T07:25:23.106Z,19.64
2016-09-10T07:26:23.111Z,19.86
2016-09-10T07:27:23.139Z,20.11
2016-09-10T07:28:23.099Z,20.15
2016-09-10T07:29:23.072Z,20.3
2016-09-10T07:30:23.076Z,20.12
2016-09-10T07:31:23.126Z,20.1
2016-09-10T07:32:23.094Z,20.15
2016-09-10T07:33:22.957Z,20.19
2016-09-10T07:34:23.011Z,20.02
2016-09-10T07:35:23.187Z,20.1
2016-09-10T07:36:23.016Z,20.38
2016-09-10T07:37:23.127Z,20.41
2016-09-10T07:38:23.100Z,20.46
2016-09-10T07:39:22.965Z,20.68
2016-09-10T07:40:22.995Z,20.75
2016-09-10T07:41:23.010Z,20.97
2016-09-10T07:42:23.037Z,21.15
2016-09-10T07:43:23.047Z,21.51
2016-09-10T07:44:23.131Z,21.83
2016-09-10T07:45:23.062Z,22.05
2016-09-10T07:46:22.982Z,21.46
2016-09-10T07:47:23.073Z,21.67
2016-09-10T07:48:23.227Z,21.67
2016-09-10T07:49:23.181Z,21.78
2016-09-10T07:50:23.140Z,21.7
2016-09-10T07:51:23.210Z,21.86
2016-09-10T07:52:23.073Z,21.97
2016-09-10T07:53:23.056Z,22.04
2016-09-10T07:54:23.145Z,22.18
2016-09-10T07:55:23.087Z,22.16
2016-09-10T07:56:23.038Z,22.36
2016-09-10T07:57:22.968Z,22.42
2016-09-10T07:58:23.135Z,22.29
2016-09-10T07:59:23.149Z,22.41
2016-09-10T08:00:23.171Z,22.15
2016-09-10T08:01:23.268Z,21.9
2016-09-10T08:02:23.054Z,21.86
2016-09-10T08:03:22.987Z,21.89
2016-09-10T08:04:23.075Z,21.9
2016-09-10T08:05:23.631Z,21.9
2016-09-10T08:06:23.175Z,22.05
2016-09-10T08:07:23.285Z,22.26
2016-09-10T08:08:23.146Z,22.38
2016-09-10T08:09:23.077Z,22.33
2016-09-10T08:10:23.185Z,22.64
2016-09-10T08:11:23.208Z,22.26
2016-09-10T08:12:23.169Z,22.11
2016-09-10T08:13:23.187Z,22.16
2016-09-10T08:14:23.114Z,22.2
2016-09-10T08:15:23.149Z,22.29
2016-09-10T08:16:23.182Z,22.48
2016-09-10T08:17:23.103Z,22.64
2016-09-10T08:18:23.050Z,22.67
2016-09-10T08:19:23.128Z,22.79
2016-09-10T08:20:23.326Z,22.57
2016-09-10T08:21:23.074Z,22.48
2016-09-10T08:22:23.127Z,22.67
2016-09-10T08:23:23.198Z,22.86
2016-09-10T08:24:23.053Z,23.07
2016-09-10T08:25:23.463Z,22.81
2016-09-10T08:26:23.155Z,22.81
2016-09-10T08:27:23.200Z,22.97
2016-09-10T08:28:23.291Z,23.19
2016-09-10T08:29:23.518Z,23.26
2016-09-10T08:30:23.305Z,23.32
2016-09-10T08:31:23.136Z,23.24
2016-09-10T08:32:23.225Z,23.28
2016-09-10T08:33:23.099Z,23.62
2016-09-10T08:34:23.186Z,23.89
2016-09-10T08:35:23.176Z,24
2016-09-10T08:36:23.150Z,24.26
2016-09-10T08:37:23.078Z,24.42
2016-09-10T08:38:23.149Z,24.82
2016-09-10T08:39:23.143Z,25.07
2016-09-10T08:40:23.110Z,24.93
2016-09-10T08:41:23.113Z,24.64
2016-09-10T08:42:23.256Z,24.74
2016-09-10T08:43:23.200Z,24.77
2016-09-10T08:44:23.131Z,24.93
2016-09-10T08:45:23.216Z,24.8
2016-09-10T08:46:23.090Z,24.49
2016-09-10T08:47:23.158Z,24.24
2016-09-10T08:48:23.155Z,24.55
2016-09-10T08:49:23.225Z,25.01
2016-09-10T08:50:23.185Z,25.47
2016-09-10T08:51:23.133Z,25.76
2016-09-10T08:52:23.158Z,26.37
2016-09-10T08:53:23.239Z,26.84
2016-09-10T08:54:23.282Z,27.26
2016-09-10T08:55:23.682Z,27.3
2016-09-10T08:56:23.295Z,27.28
2016-09-10T08:57:23.328Z,26.75
2016-09-10T08:58:23.181Z,26.67
2016-09-10T08:59:23.298Z,26.74
2016-09-10T09:00:23.164Z,26.52
2016-09-10T09:01:23.106Z,26.31
2016-09-10T09:02:23.146Z,26.38
2016-09-10T09:03:23.113Z,26.26
2016-09-10T09:04:23.160Z,26.44
2016-09-10T09:05:23.663Z,26.41
2016-09-10T09:06:23.247Z,26.79
2016-09-10T09:07:23.231Z,26.69
2016-09-10T09:08:23.221Z,26.54
2016-09-10T09:09:23.107Z,26.76
2016-09-10T09:10:23.350Z,26.81
2016-09-10T09:11:23.222Z,27.11
2016-09-10T09:12:23.275Z,27.42
2016-09-10T09:13:23.184Z,27.99
2016-09-10T09:14:23.266Z,27.8
2016-09-10T09:15:23.229Z,27.51
2016-09-10T09:16:23.276Z,27.3
2016-09-10T09:17:23.147Z,27.31
2016-09-10T09:18:23.350Z,27.66
2016-09-10T09:19:23.257Z,28.06
2016-09-10T09:20:23.255Z,28.18
2016-09-10T09:21:23.307Z,27.83
2016-09-10T09:22:23.178Z,27.79
2016-09-10T09:23:23.226Z,27.94
2016-09-10T09:24:23.315Z,28.12
2016-09-10T09:25:23.573Z,27.84
2016-09-10T09:26:23.169Z,27.57
2016-09-10T09:27:23.346Z,27.42
2016-09-10T09:28:23.357Z,27.27
2016-09-10T09:29:23.481Z,27.33
2016-09-10T09:30:23.398Z,27.33
2016-09-10T09:31:23.304Z,27.48
2016-09-10T09:32:23.575Z,27.38
2016-09-10T09:33:23.199Z,27.57
2016-09-10T09:34:23.281Z,27.34
2016-09-10T09:35:23.269Z,27.15
2016-09-10T09:36:23.437Z,27.31
2016-09-10T09:37:23.268Z,27.38
2016-09-10T09:38:23.182Z,26.42
2016-09-10T09:39:23.267Z,26.44
2016-09-10T09:40:23.260Z,25.62
2016-09-10T09:41:23.326Z,25.42
2016-09-10T09:42:23.372Z,25.47
2016-09-10T09:43:23.311Z,26.07
2016-09-10T09:44:23.419Z,26.35
2016-09-10T09:45:23.226Z,26.35
2016-09-10T09:46:24.755Z,26.64
2016-09-10T09:47:23.291Z,27.08
2016-09-10T09:48:23.444Z,27.46
2016-09-10T09:49:23.298Z,27.89
2016-09-10T09:50:23.264Z,28.46
2016-09-10T09:51:23.330Z,28.8
2016-09-10T09:52:23.376Z,29.4
2016-09-10T09:53:23.367Z,29.38
2016-09-10T09:54:23.226Z,29.29
2016-09-10T09:55:23.293Z,29.57
2016-09-10T09:56:24.205Z,29.47
2016-09-10T09:57:23.357Z,29.69
2016-09-10T09:58:23.301Z,30.13
2016-09-10T09:59:23.503Z,29.58
2016-09-10T10:00:23.353Z,29.13
2016-09-10T10:01:23.358Z,28.76
2016-09-10T10:02:23.331Z,28.82
2016-09-10T10:03:23.263Z,28.88
2016-09-10T10:04:23.338Z,28.91
2016-09-10T10:05:23.431Z,29.28
2016-09-10T10:06:23.278Z,29.38
2016-09-10T10:07:23.394Z,29.95
2016-09-10T10:08:23.273Z,29.58
2016-09-10T10:09:23.361Z,29.92
2016-09-10T10:10:23.457Z,30.02
2016-09-10T10:11:23.304Z,30.11
2016-09-10T10:12:23.369Z,29.48
2016-09-10T10:13:23.310Z,29.35
2016-09-10T10:14:23.390Z,29.4
2016-09-10T10:15:23.359Z,29.42
2016-09-10T10:16:23.463Z,29.36
2016-09-10T10:17:23.286Z,29.72
2016-09-10T10:18:23.438Z,29.97
2016-09-10T10:19:23.287Z,30.32
2016-09-10T10:20:23.246Z,30.67
2016-09-10T10:21:23.190Z,29.87
2016-09-10T10:22:23.209Z,29.55
2016-09-10T10:23:23.424Z,29.15
2016-09-10T10:24:23.372Z,29.11
2016-09-10T10:25:23.361Z,29.58
2016-09-10T10:26:24.017Z,28.01
2016-09-10T10:27:23.301Z,28.09
2016-09-10T10:28:23.475Z,27.91
2016-09-10T10:29:23.197Z,27.75
2016-09-10T10:30:23.282Z,27.16
2016-09-10T10:31:23.378Z,26.94
2016-09-10T10:32:23.420Z,27.37
2016-09-10T10:33:23.414Z,27.21
2016-09-10T10:34:23.550Z,27.48
2016-09-10T10:35:23.405Z,28.24
2016-09-10T10:36:23.335Z,28.17
2016-09-10T10:37:23.289Z,27.76
2016-09-10T10:38:23.322Z,27.9
2016-09-10T10:39:23.464Z,27.37
2016-09-10T10:40:23.317Z,27.9
2016-09-10T10:41:23.412Z,28.36
2016-09-10T10:42:23.315Z,29.11
2016-09-10T10:43:23.508Z,29.4
2016-09-10T10:44:23.436Z,29.1
2016-09-10T10:45:23.375Z,29.21
2016-09-10T10:46:23.304Z,29.48
2016-09-10T10:47:23.401Z,29.11
2016-09-10T10:48:23.428Z,28.97
2016-09-10T10:49:23.373Z,29.39
2016-09-10T10:50:23.384Z,28.6
2016-09-10T10:51:23.346Z,28.63
2016-09-10T10:52:23.435Z,29.15
2016-09-10T10:53:23.450Z,29.4
2016-09-10T10:54:23.519Z,29.47
2016-09-10T10:55:23.553Z,29.39
2016-09-10T10:56:23.547Z,29.06
2016-09-10T10:57:23.415Z,29.11
2016-09-10T10:58:23.516Z,29.4
2016-09-10T10:59:23.357Z,29.24
2016-09-10T11:00:23.430Z,27.68
2016-09-10T11:01:23.376Z,27.45
2016-09-10T11:02:23.365Z,27.55
2016-09-10T11:03:23.406Z,27.34
2016-09-10T11:04:23.492Z,27.59
2016-09-10T11:05:23.604Z,27.79
2016-09-10T11:06:23.397Z,27.94
2016-09-10T11:07:23.421Z,28.41
2016-09-10T11:08:23.330Z,29.4
2016-09-10T11:09:23.353Z,29.42
2016-09-10T11:10:23.373Z,28.92
2016-09-10T11:11:23.403Z,28.95
2016-09-10T11:12:23.295Z,29.03
2016-09-10T11:13:23.333Z,29.18
2016-09-10T11:14:23.397Z,29.5
2016-09-10T11:15:23.384Z,29.3
2016-09-10T11:16:23.521Z,29.36
2016-09-10T11:17:23.506Z,29.52
2016-09-10T11:18:23.832Z,29.67
2016-09-10T11:19:23.502Z,29.97
2016-09-10T11:20:23.453Z,29.38
2016-09-10T11:21:23.513Z,29.05
2016-09-10T11:22:23.480Z,29.61
2016-09-10T11:23:23.504Z,30.25
2016-09-10T11:24:23.466Z,30.09
2016-09-10T11:25:23.534Z,29.63
2016-09-10T11:26:23.406Z,29.63
2016-09-10T11:27:23.424Z,29.77
2016-09-10T11:28:23.431Z,29.63
2016-09-10T11:29:23.426Z,29.76
2016-09-10T11:30:24.273Z,30.18
2016-09-10T11:31:23.668Z,30.34
2016-09-10T11:32:23.558Z,30.56
2016-09-10T11:33:23.499Z,30.71
2016-09-10T11:34:23.485Z,30.31
2016-09-10T11:35:23.474Z,30.11
2016-09-10T11:36:23.529Z,29.94
2016-09-10T11:37:23.490Z,29.73
2016-09-10T11:38:23.478Z,29.91
2016-09-10T11:39:23.471Z,29.92
2016-09-10T11:40:23.650Z,29.61
2016-09-10T11:41:23.734Z,29.58
2016-09-10T11:42:23.506Z,29.67
2016-09-10T11:43:23.421Z,30
2016-09-10T11:44:23.370Z,29.97
2016-09-10T11:45:23.432Z,30.09
2016-09-10T11:46:23.536Z,30.13
2016-09-10T11:47:23.418Z,30.25
2016-09-10T11:48:23.476Z,30
2016-09-10T11:49:23.477Z,29.42
2016-09-10T11:50:23.452Z,29.52
2016-09-10T11:51:23.464Z,29.3
2016-09-10T11:52:23.395Z,28.27
2016-09-10T11:53:23.457Z,28.8
2016-09-10T11:54:23.501Z,28.68
2016-09-10T11:55:23.554Z,28.31
2016-09-10T11:56:23.573Z,28.9
2016-09-10T11:57:23.799Z,29.39
2016-09-10T11:58:23.508Z,29.92
2016-09-10T11:59:23.415Z,29.88
2016-09-10T12:00:23.573Z,30.03
2016-09-10T12:01:23.722Z,29.35
2016-09-10T12:02:23.494Z,29.33
2016-09-10T12:03:23.537Z,29.57
2016-09-10T12:04:23.519Z,29.39
2016-09-10T12:05:23.525Z,29.73
2016-09-10T12:06:23.444Z,30.03
2016-09-10T12:07:23.542Z,29.98
2016-09-10T12:08:23.377Z,30.07
2016-09-10T12:09:23.469Z,30.25
2016-09-10T12:10:23.395Z,30.1
2016-09-10T12:11:23.469Z,29.58
2016-09-10T12:12:23.538Z,29.67
2016-09-10T12:13:23.500Z,29.92
2016-09-10T12:14:23.415Z,29.97
2016-09-10T12:15:23.617Z,29.94
2016-09-10T12:16:23.449Z,29.47
2016-09-10T12:17:23.387Z,28.54
2016-09-10T12:18:23.599Z,28.72
2016-09-10T12:19:23.608Z,29.52
2016-09-10T12:20:23.547Z,29.7
2016-09-10T12:21:23.506Z,30.11
2016-09-10T12:22:23.448Z,30.25
2016-09-10T12:23:23.642Z,29.6
2016-09-10T12:24:23.456Z,29.55
2016-09-10T12:25:23.636Z,30.03
2016-09-10T12:26:23.548Z,29.94
2016-09-10T12:27:23.578Z,28.97
2016-09-10T12:28:23.488Z,28.38
2016-09-10T12:29:23.594Z,27.93
2016-09-10T12:30:23.766Z,28.51
2016-09-10T12:31:23.782Z,29.57
2016-09-10T12:32:23.642Z,29.63
2016-09-10T12:33:23.528Z,29.85
2016-09-10T12:34:23.525Z,29.95
2016-09-10T12:35:23.502Z,30.03
2016-09-10T12:36:23.476Z,29.85
2016-09-10T12:37:23.525Z,29.54
2016-09-10T12:38:23.878Z,29.21
2016-09-10T12:39:23.607Z,28.91
2016-09-10T12:40:23.572Z,29.39
2016-09-10T12:41:23.528Z,28.79
2016-09-10T12:42:23.641Z,28.36
2016-09-10T12:43:23.670Z,28.02
2016-09-10T12:44:23.532Z,27.75
2016-09-10T12:45:23.639Z,28.75
2016-09-10T12:46:23.518Z,29.47
2016-09-10T12:47:23.497Z,29.58
2016-09-10T12:48:23.627Z,30.03
2016-09-10T12:49:23.614Z,29.63
2016-09-10T12:50:23.488Z,28.43
2016-09-10T12:51:23.604Z,28.26
2016-09-10T12:52:23.505Z,28.83
2016-09-10T12:53:23.655Z,29.72
2016-09-10T12:54:23.579Z,29.95
2016-09-10T12:55:23.564Z,29.75